WETTERDATEN

HEUTE
Time Temp. Taup. r.Fe. Windrich Windstärke Windböe Druck 1h Prec. 24h Prec.
00:03 3.5 1.9 89 196 0.8 2.8 980 0.3030 0.0000
00:13 3.6 2 89 167 0.8 2.5 979.9 0.3030 0.0000
00:23 3.6 2 89 184 0.3 2.2 979.8 0.2020 0.0000
00:32 3.8 2.2 89 229 0.8 2.5 979.7 0.1010 0.0000
00:43 3.9 2.3 89 200 1.1 2.8 979.7 0.0000 0.0000
00:53 4 2.5 90 214 1.1 3.3 979.8 0.0000 0.0000
01:03 4.2 2.7 90 212 1.1 3.3 979.7 0.0000 0.0000
01:13 4.2 2.6 89 210 0.8 2.2 979.5 0.0000 0.0000
01:23 4.3 2.7 89 182 0.8 2.2 979.5 0.0000 0.0000
01:33 4.3 2.7 89 210 1.1 3.3 979.4 0.0000 0.0000
01:49 4.5 3 90 225 1.1 3.6 979.3 0.0000 0.0000
01:58 4.5 2.8 89 219 0.8 2.5 979.3 0.0000 0.0000
02:08 4.5 2.8 89 169 1.1 3.6 979.4 0.0000 0.0000
02:18 4.5 2.8 89 189 1.1 5.3 979.4 0.0000 0.0000
02:29 4.5 2.8 89 213 1.1 3.9 979.4 0.0000 0.0000
02:38 4.5 2.8 89 215 1.1 3.3 979.3 0.0000 0.0000
02:48 4.5 2.8 89 233 1.1 4.2 979.3 0.0000 0.0000
02:59 4.5 2.8 89 207 1.1 3.3 979.3 0.0000 0.0000
03:09 4.5 2.8 89 217 1.1 3.6 979.1 0.0000 0.0000
03:19 4.5 2.8 89 214 1.1 2.8 979.1 0.0000 0.0000
03:28 4.5 2.8 89 203 1.1 3.6 979 0.0000 0.0000
03:39 4.6 2.9 89 226 1.4 3.9 978.9 0.0000 0.0000
03:49 4.6 2.9 89 218 1.1 4.2 979 0.0000 0.0000
04:04 4.6 2.9 89 199 1.1 3.3 978.7 0.0000 0.0000
04:14 4.5 2.7 88 209 1.1 4.7 978.6 0.0000 0.0000
04:24 4.5 2.7 88 222 1.4 4.2 978.6 0.0000 0.0000
04:34 4.5 2.7 88 191 1.1 4.7 978.4 0.0000 0.0000
04:45 4.5 2.7 88 198 1.1 4.2 978.4 0.0000 0.0000
04:54 4.5 2.7 88 211 1.1 4.7 978.2 0.0000 0.0000
05:04 4.5 2.7 88 211 1.1 2.5 978.3 0.0000 0.0000
05:14 4.5 2.7 88 206 1.1 5 978.2 0.0000 0.0000
05:25 4.5 2.7 88 168 1.1 4.2 978.2 0.0000 0.0000
05:34 4.6 2.8 88 235 1.4 4.2 978.3 0.0000 0.0000
05:44 4.6 2.8 88 216 1.1 2.8 978.1 0.0000 0.0000
05:55 4.6 2.8 88 222 1.1 2.5 978.2 0.0000 0.0000
06:05 4.7 2.9 88 234 1.4 5 978.3 0.1010 0.1000
06:14 4.7 2.9 88 216 0.8 2.8 978.4 0.1010 0.1000
06:24 4.7 2.9 88 225 1.4 3.6 978.4 0.1010 0.1000
06:35 4.7 2.9 88 220 1.1 3.9 978.6 0.1010 0.1000
06:45 4.7 2.9 88 206 1.4 4.7 978.8 0.1010 0.1000
06:54 4.7 2.9 88 214 1.1 3.6 978.7 0.1010 0.1000
07:05 4.7 2.9 88 225 1.4 4.7 978.8 0.0000 0.1000
07:22 4.7 2.9 88 221 1.1 6.1 979 0.1010 0.2000
07:32 4.7 2.9 88 232 1.4 4.2 979.2 0.1010 0.2000
07:42 4.6 2.8 88 239 1.7 4.7 979.3 0.2020 0.3000
07:52 4.6 2.6 87 240 1.4 3.6 979.4 0.5050 0.6000
08:03 4.4 2.4 87 232 1.4 4.2 979.4 0.5050 0.7000
08:12 4.3 2.3 87 239 1.7 3.6 979.5 0.5050 0.7000
08:28 4.2 2.2 87 228 1.4 5.3 980 0.7070 0.9000
08:38 4.1 2.1 87 215 1.1 3.6 980 0.5050 1.0000
08:52 4.1 2.3 88 223 1.1 3.3 980.3 0.3030 1.0000
09:02 4 2.2 88 204 1.1 2.8 980.6 0.3030 1.0000
09:18 4 2.2 88 217 0.8 2.5 980.6 0.4040 1.1000
09:27 4.1 2.3 88 229 1.1 4.7 980.7 0.2020 1.1000
09:38 4.1 2.3 88 231 1.1 2.8 980.7 0.1010 1.1000
09:48 4.1 2.3 88 222 0.8 2.8 981.1 0.1010 1.1000
09:58 4.2 2.4 88 225 1.1 3.3 981.2 0.1010 1.1000
10:08 4.4 2.6 88 225 1.1 5.3 981.1 0.0000 1.1000
10:18 4.6 2.9 89 232 1.4 5.3 981.5 0.0000 1.1000
10:27 4.8 3.1 89 236 2.2 7.2 981.8 0.0000 1.1000
10:37 4.9 3.1 88 235 2.8 8.3 981.8 0.0000 1.1000
10:48 5 3.2 88 230 1.4 5 982 0.0000 1.1000
10:57 5.2 3.5 89 232 1.1 3.6 982.1 0.0000 1.1000
11:12 5.5 3.7 88 235 1.7 6.7 982.2 0.0000 1.1000
11:27 5.7 3.9 88 237 2.5 7.2 982.5 0.0000 1.1000
11:37 5.8 3.8 87 231 1.7 4.7 982.6 0.0000 1.1000
11:47 6.1 4.1 87 235 1.7 5 982.6 0.0000 1.1000
11:57 6.4 4.4 87 234 2.5 7.5 982.8 0.0000 1.1000
12:07 6.4 4.2 86 228 2.2 5.3 983.1 0.0000 1.1000
12:22 6.1 3.8 85 230 2.5 8.6 983.4 0.3030 1.4000
12:32 5.8 3.6 86 224 2.5 6.7 983.7 0.7070 1.8000
12:47 5.5 3.3 86 227 3.9 10.8 983.7 1.3130 2.4000
12:57 5.3 3.2 86 246 5.3 9.7 984 1.4140 2.5000
13:07 5 2.7 85 216 3.9 8.3 984.1 1.8180 3.0000
13:17 4.8 2.7 86 246 2.2 5.3 984.1 1.9190 3.3000
13:27 4.7 2.6 86 236 1.7 3.6 984.3 1.5150 3.3000
13:37 5.1 3.1 87 237 2.8 5.8 984.2 1.4140 3.4000
13:47 5.5 3.5 87 233 2.2 4.2 984.4 1.0100 3.5000
13:57 5.7 3.5 86 234 2.5 5 984.7 0.8080 3.5000
14:08 5.8 3.3 84 243 2.5 7.8 984.9 0.5050 3.5000
14:17 5.9 3.4 84 235 2.8 7.8 985.1 0.2020 3.5000
14:27 5.9 3.4 84 236 1.7 3.9 985.1 0.1010 3.5000
14:37 5.9 3.4 84 234 2.2 7.5 985.4 0.0000 3.5000
14:48 5.8 3.3 84 235 2.5 7.8 985.5 0.0000 3.5000
14:58 5.8 3.3 84 237 1.7 5 985.7 0.0000 3.5000
15:07 5.8 3.3 84 229 1.7 5.3 985.7 0.0000 3.5000
15:18 5.8 3.1 83 231 2.2 5.8 985.8 0.0000 3.5000
15:28 5.9 3.2 83 233 1.7 3.6 985.8 0.0000 3.5000
15:38 5.9 3.2 83 232 2.2 6.4 985.9 0.0000 3.5000
15:47 5.9 3.1 82 233 1.7 5.3 985.9 0.0000 3.5000
15:58 5.9 3.1 82 225 1.4 3.9 986 0.0000 3.5000
16:08 5.9 3.1 82 237 1.4 4.7 986.2 0.0000 3.5000
16:18 5.8 2.8 81 232 1.1 3.9 986.4 0.0000 3.5000
16:28 5.8 2.8 81 220 1.4 3.6 986.3 0.0000 3.5000
16:38 5.8 2.8 81 225 1.1 3.3 986.5 0.0000 3.5000
16:48 5.8 2.8 81 222 1.1 3.6 986.6 0.0000 3.5000
16:58 5.8 3 82 227 1.1 3.6 986.7 0.0000 3.5000
17:08 5.8 3 82 235 1.4 3.3 986.6 0.0000 3.5000
17:18 5.8 3 82 225 2.2 3.9 986.8 0.0000 3.5000
17:28 5.8 3 82 223 1.4 4.2 986.9 0.0000 3.5000
17:39 5.8 3 82 229 1.4 4.2 987.1 0.0000 3.5000
17:49 5.7 2.9 82 225 1.4 6.4 987.3 0.0000 3.5000
17:58 5.7 2.9 82 232 2.2 4.7 987.7 0.0000 3.5000
18:08 5.6 2.8 82 234 2.2 5 987.8 0.0000 3.5000
18:14 5.5 2.7 82 230 2.2 5.8 988 0.0000 3.5000
18:24 5.4 2.7 83 236 2.2 7.5 988.1 0.0000 3.5000
18:34 5.3 2.7 83 230 2.2 5.8 988.1 0.0000 3.5000
18:50 5 2.5 84 240 2.2 5.8 988.4 0.0000 3.5000
18:59 4.9 2.4 84 228 1.4 6.1 988.8 0.0000 3.5000
19:09 4.8 2.3 84 228 2.2 6.4 989.2 0.0000 3.5000
19:19 4.8 2.5 85 232 2.5 6.7 989.7 0.0000 3.5000
19:30 4.7 2.4 85 232 2.5 6.7 989.7 0.0000 3.5000
19:40 4.5 2.2 85 233 2.2 6.1 990.1 0.0000 3.5000
19:49 4.4 2.1 85 234 1.4 5.3 990.4 0.0000 3.5000
20:00 4.2 1.9 85 225 1.4 4.2 990.5 0.0000 3.5000
20:10 4.1 1.8 85 222 1.1 2.8 990.7 0.0000 3.5000
20:20 3.9 1.6 85 225 1.1 3.6 991 0.0000 3.5000
20:29 3.8 1.7 86 229 1.4 5 991.2 0.0000 3.5000
20:40 3.7 1.6 86 225 1.4 5.3 991.4 0.0000 3.5000
20:50 3.8 1.7 86 230 1.1 3.6 991.6 0.0000 3.5000
21:00 3.8 1.7 86 225 1.1 2.8 991.8 0.0000 3.5000
21:10 3.8 1.7 86 232 1.4 3.3 992.1 0.0000 3.5000
21:20 3.9 1.9 87 232 1.1 3.6 992.3 0.0000 3.5000
21:30 3.9 1.8 86 225 0.8 2.5 992.4 0.0000 3.5000
21:40 3.8 1.7 86 221 1.1 3.6 992.5 0.0000 3.5000

TAGESSTATISTIK

2019-12-14
TEMPERATUR
MITTEL
4.8
MAXIMUM
6.4
11:57
MINIMUM
3.5
00:03
LUFTDRUCK
MITTEL
983.2
MAXIMUM
992.5
21:40
MINIMUM
978.1
05:44
TAUPUNKT
MITTEL
2.8
MAXIMUM
4.4
11:57
MINIMUM
1.6
20:20
FEUCHTIGKEIT
MITTEL
86
MAXIMUM
90
00:53
MINIMUM
81
16:18
WINDSTÄRKE
MITTEL
1.5
MAXIMUM
5.3
12:57
WINDBÖE
MITTEL
4.6
MAXIMUM
10.8
12:47
WINDRICHTUNG
VORHERRSCHENDE
SW
89.6%
N
0.0
NO
0.0
O
0.0
SO
0.0
S
10.4
SW
89.6
W
0.0
NW
0.0
NIEDERSCHLAG
REGEN STUNDE
1.9
REGEN TAG
3.5
TEMPERATUR (°C)
MINIMUM
3.5
MAXIMUM
6.4
MITTEL
4.8
LUFTDRUCK (hpa)
MINIMUM
978.1
MAXIMUM
992.5
MITTEL
983.2
MESSGERÄT